Time;durP1;ratioP1;P1;durP2;ratioP2;P2;SDS_P1;SDS_P2;PMS_P1;PMS_P2;Temp;Humidity;BMP_temperature;BMP_pressure;BME280_temperature;BME280_humidity;BME280_pressure;Samples;Min_cycle;Max_cycle;Signal;HPM_P1;HPM_P2
2021/12/02 00:02:20;;;;;;;2.63;1.60;;;7.00;1.00;7.90;98669.00;;;;4960260;29;20456;-80
2021/12/02 00:04:50;;;;;;;3.00;1.87;;;7.00;1.00;7.80;98677.00;;;;4957136;29;20463;-80
2021/12/02 00:07:18;;;;;;;1.70;1.23;;;7.00;1.00;7.80;98679.00;;;;4954280;29;20469;-81
2021/12/02 00:09:48;;;;;;;3.40;1.77;;;7.00;1.00;7.80;98667.00;;;;4961169;28;20503;-81
2021/12/02 00:12:17;;;;;;;2.97;1.57;;;7.00;1.00;7.80;98637.00;;;;4941569;29;20448;-80
2021/12/02 00:14:47;;;;;;;3.97;1.60;;;6.90;1.00;7.80;98661.00;;;;4939999;29;20508;-80
2021/12/02 00:17:18;;;;;;;2.50;1.37;;;6.90;1.00;7.70;98677.00;;;;4954641;29;20478;-80
2021/12/02 00:23:00;;;;;;;2.13;1.77;;;7.00;1.00;7.70;98672.00;;;;4957921;28;20490;-81
2021/12/02 00:25:30;;;;;;;2.10;1.10;;;7.00;1.00;7.80;98698.00;;;;4948355;29;20883;-81
2021/12/02 00:28:01;;;;;;;3.03;1.13;;;6.90;1.00;7.90;98674.00;;;;4945616;29;20462;-80
2021/12/02 00:30:29;;;;;;;1.97;1.10;;;6.90;1.00;7.90;98679.00;;;;4960449;28;20496;-81
2021/12/02 00:32:59;;;;;;;2.50;1.03;;;7.00;1.00;7.90;98684.00;;;;4960078;29;20467;-80
2021/12/02 00:35:27;;;;;;;2.30;1.10;;;7.00;1.00;7.90;98690.00;;;;4963792;28;20543;-80
2021/12/02 00:37:57;;;;;;;2.57;1.10;;;7.00;1.00;7.90;98686.00;;;;4973457;28;20479;-82
2021/12/02 00:40:26;;;;;;;1.50;1.10;;;7.00;1.00;7.90;98685.00;;;;4984554;28;20550;-79
2021/12/02 00:42:59;;;;;;;2.27;1.23;;;7.00;1.00;7.90;98637.00;;;;4954935;28;20460;-80
2021/12/02 00:45:27;;;;;;;2.97;1.97;;;7.00;1.00;7.90;98693.00;;;;4972004;29;20464;-80
2021/12/02 00:47:56;;;;;;;3.33;2.10;;;7.10;1.00;8.00;98685.00;;;;4970076;29;20496;-80
2021/12/02 00:50:25;;;;;;;3.10;2.53;;;7.00;1.00;7.90;98690.00;;;;4969261;29;20492;-83
2021/12/02 00:52:54;;;;;;;4.20;2.60;;;7.00;1.00;7.90;98694.00;;;;4974246;29;20480;-80
2021/12/02 00:55:25;;;;;;;3.97;3.07;;;7.00;1.00;7.90;98673.00;;;;4957614;29;20480;-79
2021/12/02 00:57:56;;;;;;;3.90;2.80;;;7.00;1.00;7.90;98704.00;;;;4973354;29;20497;-82
2021/12/02 01:00:25;;;;;;;4.00;2.60;;;6.90;1.00;7.90;98674.00;;;;4974250;29;20499;-81
2021/12/02 01:02:53;;;;;;;4.30;2.90;;;6.90;1.00;7.90;98672.00;;;;4965806;28;20444;-82
2021/12/02 01:05:22;;;;;;;5.47;3.00;;;6.90;1.00;7.80;98702.00;;;;4955549;29;20478;-80
2021/12/02 01:07:51;;;;;;;6.40;2.73;;;6.90;1.00;7.80;98704.00;;;;4972468;29;20441;-80
2021/12/02 01:10:20;;;;;;;6.13;2.83;;;6.90;1.00;7.80;98710.00;;;;4961683;28;20487;-80
2021/12/02 01:12:50;;;;;;;4.90;2.50;;;6.90;1.00;7.80;98688.00;;;;4950589;28;20512;-83
2021/12/02 01:15:19;;;;;;;4.10;2.30;;;6.90;1.00;7.80;98706.00;;;;4981591;28;20440;-83
2021/12/02 01:17:48;;;;;;;4.63;2.43;;;6.80;1.00;7.80;98700.00;;;;4981909;28;20463;-83
2021/12/02 01:20:16;;;;;;;4.57;2.80;;;6.80;1.00;7.70;98687.00;;;;4965030;28;20495;-79
2021/12/02 01:22:45;;;;;;;6.93;3.10;;;6.90;1.00;7.60;98699.00;;;;4973418;28;20464;-80
2021/12/02 01:25:14;;;;;;;6.30;2.63;;;6.70;1.00;7.60;98706.00;;;;4955634;29;20642;-79
2021/12/02 01:27:43;;;;;;;6.10;3.00;;;6.70;1.00;7.60;98707.00;;;;4975129;28;20463;-79
2021/12/02 01:30:12;;;;;;;3.67;2.60;;;6.70;1.00;7.70;98677.00;;;;4954122;29;20482;-79
2021/12/02 01:32:42;;;;;;;4.00;2.60;;;6.60;1.00;7.70;98705.00;;;;4955651;29;20657;-79
2021/12/02 01:35:10;;;;;;;7.27;2.60;;;6.60;1.00;7.70;98670.00;;;;4969417;28;20467;-82
2021/12/02 01:37:40;;;;;;;5.70;2.90;;;6.70;1.00;7.70;98717.00;;;;4970035;29;20572;-80
2021/12/02 01:40:10;;;;;;;5.40;2.70;;;6.60;1.00;7.70;98705.00;;;;4972424;28;20548;-79
2021/12/02 01:42:41;;;;;;;6.07;2.43;;;6.70;1.00;7.80;98715.00;;;;4969189;28;20512;-80
2021/12/02 01:45:16;;;;;;;6.60;2.43;;;6.70;1.00;7.70;98720.00;;;;4971499;28;20499;-80
2021/12/02 01:47:51;;;;;;;4.80;2.97;;;6.70;1.00;7.80;98709.00;;;;4965612;29;20448;-80
2021/12/02 01:50:22;;;;;;;5.87;2.33;;;6.70;1.00;7.70;98718.00;;;;4950480;29;20514;-80
2021/12/02 01:52:56;;;;;;;4.00;2.70;;;6.70;1.00;7.90;98682.00;;;;4946448;29;20473;-80
2021/12/02 01:55:27;;;;;;;4.10;2.23;;;6.70;1.00;7.90;98733.00;;;;4963836;29;20556;-80
2021/12/02 01:58:00;;;;;;;3.20;1.87;;;6.70;1.00;7.90;98670.00;;;;4965980;29;20479;-81
2021/12/02 02:00:32;;;;;;;2.97;1.70;;;6.80;1.00;7.90;98678.00;;;;4966217;28;20507;-80
2021/12/02 02:03:03;;;;;;;5.53;1.43;;;6.80;1.00;7.80;98601.00;;;;4963299;29;20462;-79
2021/12/02 02:05:32;;;;;;;2.67;1.53;;;6.80;1.00;7.90;98723.00;;;;4969019;29;20543;-80
2021/12/02 02:08:04;;;;;;;3.27;1.60;;;6.80;1.00;7.90;98713.00;;;;4954703;28;20496;-80
2021/12/02 02:10:40;;;;;;;3.37;1.40;;;6.80;1.00;7.80;98726.00;;;;4980592;28;20476;-82
2021/12/02 02:13:11;;;;;;;2.60;1.33;;;6.80;1.00;7.80;98710.00;;;;4959031;29;20972;-80
2021/12/02 02:15:45;;;;;;;3.73;1.73;;;6.80;1.00;7.90;98709.00;;;;4974813;29;20490;-79
2021/12/02 02:18:19;;;;;;;3.20;1.40;;;6.80;1.00;7.90;98711.00;;;;4974622;29;20463;-80
2021/12/02 02:20:53;;;;;;;3.13;1.50;;;6.80;1.00;7.90;98716.00;;;;4947813;29;20848;-80
2021/12/02 02:23:25;;;;;;;3.90;1.60;;;6.80;1.00;7.90;98711.00;;;;4949480;28;20498;-80
2021/12/02 02:25:53;;;;;;;4.40;1.63;;;6.80;1.00;7.90;98709.00;;;;4956585;29;20448;-80
2021/12/02 02:28:22;;;;;;;2.43;1.63;;;6.80;1.00;8.00;98706.00;;;;4980235;28;20455;-80
2021/12/02 02:30:54;;;;;;;4.50;1.30;;;6.80;1.00;7.80;98642.00;;;;4966710;28;20482;-80
2021/12/02 02:33:23;;;;;;;2.40;1.40;;;6.90;1.00;7.90;98634.00;;;;4948503;29;20571;-81
2021/12/02 02:35:53;;;;;;;4.03;1.40;;;6.90;1.00;7.90;98683.00;;;;4939999;29;20466;-80
2021/12/02 02:38:23;;;;;;;4.17;1.37;;;6.80;1.00;7.90;98691.00;;;;4956835;28;20529;-79
2021/12/02 02:40:51;;;;;;;2.50;1.40;;;6.80;1.00;7.90;98722.00;;;;4962587;29;20472;-79
2021/12/02 02:43:23;;;;;;;2.43;1.50;;;6.90;1.00;7.90;98723.00;;;;4960645;29;20552;-80
2021/12/02 02:45:51;;;;;;;2.63;1.40;;;6.90;1.00;7.90;98710.00;;;;4962002;29;20473;-80
2021/12/02 02:48:20;;;;;;;3.80;1.80;;;6.80;1.00;7.90;98624.00;;;;4945996;29;20496;-79
2021/12/02 02:50:48;;;;;;;4.00;1.50;;;6.80;1.00;7.90;98722.00;;;;4961470;29;20483;-80
2021/12/02 02:53:22;;;;;;;3.60;1.60;;;6.80;1.00;7.80;98715.00;;;;4944299;29;20535;-80
2021/12/02 02:56:01;;;;;;;3.37;1.30;;;6.70;1.00;7.60;98721.00;;;;4945095;28;20471;-80
2021/12/02 02:58:40;;;;;;;2.73;1.40;;;6.70;1.00;7.60;98614.00;;;;4963266;28;20483;-81
2021/12/02 03:01:21;;;;;;;4.17;1.50;;;6.60;1.00;7.30;98726.00;;;;4973051;28;20436;-80
2021/12/02 03:03:58;;;;;;;5.27;1.70;;;6.50;1.00;7.40;98733.00;;;;4959608;29;20452;-81
2021/12/02 03:06:31;;;;;;;4.87;2.20;;;6.40;1.00;7.40;98712.00;;;;4943229;29;20460;-80
2021/12/02 03:09:05;;;;;;;3.00;1.50;;;6.40;1.00;217.30;159766.00;;;;4942637;29;20469;-79
2021/12/02 03:11:41;;;;;;;3.90;1.30;;;6.40;1.00;7.30;98711.00;;;;4956424;28;20585;-81
2021/12/02 03:14:13;;;;;;;5.20;2.07;;;6.30;1.00;7.20;98652.00;;;;4962248;29;20487;-81
2021/12/02 03:16:44;;;;;;;5.37;2.00;;;6.20;1.00;7.20;98686.00;;;;4965991;28;20520;-81
2021/12/02 03:19:15;;;;;;;3.83;1.93;;;6.20;1.00;7.10;98702.00;;;;4983884;28;20483;-80
2021/12/02 03:21:44;;;;;;;3.77;1.40;;;6.20;1.00;7.10;98651.00;;;;4970072;28;20511;-81
2021/12/02 03:24:13;;;;;;;5.97;1.77;;;6.20;1.00;7.00;98711.00;;;;4960155;29;20448;-80
2021/12/02 03:26:42;;;;;;;5.40;2.00;;;6.10;1.00;7.00;98696.00;;;;4962368;29;20455;-79
2021/12/02 03:29:10;;;;;;;3.00;1.47;;;6.10;1.00;7.00;98715.00;;;;4956270;29;20544;-81
2021/12/02 03:31:39;;;;;;;6.83;1.67;;;6.10;1.00;7.00;98705.00;;;;4969032;29;20481;-80
2021/12/02 03:34:08;;;;;;;4.83;1.70;;;6.20;1.00;7.00;98559.00;;;;4967573;29;20457;-82
2021/12/02 03:36:37;;;;;;;4.43;1.60;;;6.10;1.00;6.80;98722.00;;;;4954583;29;20467;-81
2021/12/02 03:39:08;;;;;;;7.03;1.93;;;6.10;1.00;7.00;98626.00;;;;4949954;29;20484;-80
2021/12/02 03:41:39;;;;;;;5.33;1.60;;;6.10;1.00;7.00;98715.00;;;;4964625;29;20452;-79
2021/12/02 03:44:09;;;;;;;5.67;1.80;;;6.10;1.00;7.00;98714.00;;;;4961844;29;21092;-80
2021/12/02 03:46:39;;;;;;;7.53;1.73;;;6.10;1.00;7.10;98718.00;;;;4963701;28;20460;-80
2021/12/02 03:49:08;;;;;;;4.07;1.90;;;6.10;1.00;7.00;98677.00;;;;4947027;29;20488;-80
2021/12/02 03:51:37;;;;;;;5.00;1.30;;;6.10;1.00;7.10;98718.00;;;;4963661;28;20455;-81
2021/12/02 03:54:06;;;;;;;6.33;2.43;;;6.10;1.00;7.00;98713.00;;;;4940406;29;20452;-80
2021/12/02 03:56:35;;;;;;;4.10;1.77;;;6.10;1.00;7.00;98714.00;;;;4961986;28;20868;-81
2021/12/02 03:59:04;;;;;;;6.07;1.80;;;6.10;1.00;7.00;98706.00;;;;4964798;28;20515;-80
2021/12/02 04:01:33;;;;;;;5.97;1.73;;;6.10;1.00;7.00;98720.00;;;;4964543;29;20536;-81
2021/12/02 04:04:01;;;;;;;6.70;2.00;;;6.10;1.00;7.00;98696.00;;;;4945171;29;20457;-79
2021/12/02 04:06:31;;;;;;;4.27;1.80;;;6.00;1.00;7.00;98712.00;;;;4972881;28;20996;-80
2021/12/02 04:09:04;;;;;;;6.70;2.17;;;6.00;1.00;7.00;98706.00;;;;4962203;28;20586;-79
2021/12/02 04:11:36;;;;;;;5.70;1.73;;;6.00;1.00;7.00;98702.00;;;;4978210;28;20527;-81
2021/12/02 04:14:16;;;;;;;6.03;1.80;;;6.00;1.00;7.00;98709.00;;;;4965637;28;20535;-82
2021/12/02 04:16:52;;;;;;;6.07;1.80;;;6.00;1.00;7.00;98703.00;;;;4973797;28;20456;-80
2021/12/02 04:19:22;;;;;;;5.73;2.00;;;6.00;1.00;7.00;98685.00;;;;4950704;28;20487;-80
2021/12/02 04:21:52;;;;;;;5.10;1.70;;;6.00;1.00;6.90;98705.00;;;;4949730;29;20464;-79
2021/12/02 04:24:21;;;;;;;4.33;1.60;;;5.90;1.00;6.90;98715.00;;;;4966176;29;20452;-80
2021/12/02 04:26:51;;;;;;;3.27;1.53;;;5.90;1.00;6.90;98689.00;;;;4950566;29;20459;-79
2021/12/02 04:29:22;;;;;;;6.77;1.77;;;5.90;1.00;6.90;98710.00;;;;4967198;28;20464;-80
2021/12/02 04:31:52;;;;;;;5.43;2.23;;;5.90;1.00;6.90;98708.00;;;;4960507;28;20465;-79
2021/12/02 04:34:20;;;;;;;5.10;1.70;;;5.90;1.00;6.90;98699.00;;;;4963184;28;20534;-80
2021/12/02 04:36:49;;;;;;;4.50;2.13;;;5.80;1.00;6.90;98694.00;;;;4962941;28;20996;-79
2021/12/02 04:39:20;;;;;;;8.80;1.60;;;5.90;1.00;6.90;98695.00;;;;4974952;28;20479;-79
2021/12/02 04:41:48;;;;;;;6.03;1.60;;;5.80;1.00;6.90;98700.00;;;;4977620;28;20977;-80
2021/12/02 04:44:18;;;;;;;5.50;1.93;;;5.80;1.00;6.90;98707.00;;;;4977275;28;20945;-79
2021/12/02 04:46:50;;;;;;;5.50;2.10;;;5.80;1.00;6.90;98706.00;;;;4960385;28;21016;-79
2021/12/02 04:49:19;;;;;;;4.57;2.00;;;5.80;1.00;6.80;98704.00;;;;4976991;28;20579;-79
2021/12/02 04:51:47;;;;;;;5.83;1.80;;;5.80;1.00;6.80;98702.00;;;;4963173;28;20444;-79
2021/12/02 04:54:16;;;;;;;6.73;2.50;;;5.70;1.00;6.80;98710.00;;;;4982148;28;20459;-80
2021/12/02 04:56:44;;;;;;;7.17;2.30;;;5.70;1.00;6.70;98708.00;;;;4981511;28;20444;-80
2021/12/02 04:59:12;;;;;;;9.13;2.30;;;5.80;1.00;6.70;98665.00;;;;4980801;28;20452;-82
2021/12/02 05:01:41;;;;;;;4.03;2.10;;;5.70;1.00;6.70;98695.00;;;;4974034;28;20449;-80
2021/12/02 05:04:11;;;;;;;4.50;1.83;;;5.70;1.00;6.70;98667.00;;;;4967331;28;20483;-81
2021/12/02 05:06:39;;;;;;;4.40;2.00;;;5.60;1.00;6.70;98678.00;;;;4956689;29;20816;-80
2021/12/02 05:09:07;;;;;;;5.87;2.03;;;5.60;1.00;6.70;98710.00;;;;4972780;28;20476;-80
2021/12/02 05:11:38;;;;;;;4.57;1.70;;;5.60;1.00;6.80;98699.00;;;;4963524;29;20813;-80
2021/12/02 05:14:08;;;;;;;6.13;2.23;;;5.70;1.00;6.80;98694.00;;;;4942854;29;20551;-80
2021/12/02 05:16:37;;;;;;;9.27;2.30;;;5.70;1.00;6.80;98723.00;;;;4939710;29;20453;-80
2021/12/02 05:19:07;;;;;;;6.00;1.97;;;5.70;1.00;6.80;98723.00;;;;4939816;28;20477;-81
2021/12/02 05:21:37;;;;;;;5.93;2.63;;;5.70;1.00;6.80;98696.00;;;;4954084;29;20449;-79
2021/12/02 05:24:06;;;;;;;3.77;1.60;;;5.70;1.00;6.80;98696.00;;;;4920570;29;20450;-80
2021/12/02 05:26:35;;;;;;;6.47;1.97;;;5.70;1.00;6.70;98699.00;;;;4951982;28;20551;-79
2021/12/02 05:29:03;;;;;;;5.93;2.00;;;5.60;1.00;6.70;98663.00;;;;4945422;28;20508;-80
2021/12/02 05:31:32;;;;;;;6.30;2.20;;;5.60;1.00;6.60;98699.00;;;;4950283;29;20548;-80
2021/12/02 05:34:00;;;;;;;5.97;2.00;;;5.60;1.00;6.60;98711.00;;;;4959760;28;20464;-80
2021/12/02 05:36:28;;;;;;;7.43;2.10;;;5.50;1.00;6.60;98714.00;;;;4960645;28;20482;-80
2021/12/02 05:38:58;;;;;;;4.97;2.10;;;5.50;1.00;6.60;98719.00;;;;4961083;29;20484;-80
2021/12/02 05:41:28;;;;;;;7.00;2.17;;;5.50;1.00;6.60;98670.00;;;;4944633;29;20498;-80
2021/12/02 05:43:57;;;;;;;4.70;1.90;;;5.50;1.00;6.60;98656.00;;;;4961635;29;20461;-79
2021/12/02 05:46:25;;;;;;;4.30;1.70;;;5.50;1.00;6.60;98711.00;;;;4963848;28;20456;-79
2021/12/02 05:48:54;;;;;;;5.90;2.13;;;5.60;1.00;6.60;98709.00;;;;4947020;28;20484;-81
2021/12/02 05:51:22;;;;;;;4.53;2.13;;;5.50;1.00;6.60;98674.00;;;;4962415;29;21044;-80
2021/12/02 05:53:51;;;;;;;6.40;2.23;;;5.50;1.00;6.50;98675.00;;;;4942828;29;20452;-79
2021/12/02 05:56:20;;;;;;;7.80;2.40;;;5.50;1.00;6.50;98703.00;;;;4926552;29;20445;-80
2021/12/02 05:58:49;;;;;;;5.33;2.23;;;5.50;1.00;6.50;98710.00;;;;4944826;28;20942;-79
2021/12/02 06:01:17;;;;;;;6.03;2.30;;;5.40;1.00;6.50;98694.00;;;;4964253;29;20474;-81
2021/12/02 06:03:46;;;;;;;3.90;1.90;;;5.50;1.00;6.50;98642.00;;;;4962195;29;20457;-81
2021/12/02 06:06:16;;;;;;;6.47;2.00;;;5.40;1.00;6.50;98704.00;;;;4962292;29;20467;-80
2021/12/02 06:08:45;;;;;;;8.03;2.07;;;5.40;1.00;6.50;98683.00;;;;4945239;29;20530;-80
2021/12/02 06:11:14;;;;;;;6.43;2.10;;;5.50;1.00;6.50;98700.00;;;;4928607;29;20473;-80
2021/12/02 06:13:46;;;;;;;3.77;2.07;;;5.40;1.00;6.60;98715.00;;;;4927634;29;20446;-80
2021/12/02 06:16:15;;;;;;;4.87;1.87;;;5.40;1.00;6.60;98712.00;;;;4962108;29;20440;-80
2021/12/02 06:18:43;;;;;;;7.43;2.60;;;5.50;1.00;6.60;98674.00;;;;4948370;28;20460;-80
2021/12/02 06:21:12;;;;;;;5.23;2.20;;;5.50;1.00;6.60;98694.00;;;;4950693;29;20847;-79
2021/12/02 06:23:41;;;;;;;7.33;2.43;;;5.50;1.00;6.70;67702.00;;;;4952643;29;20464;-81
2021/12/02 06:26:10;;;;;;;5.37;2.10;;;5.50;1.00;6.70;98725.00;;;;4974583;28;20453;-79
2021/12/02 06:28:38;;;;;;;4.00;1.90;;;5.60;1.00;6.70;98729.00;;;;4976774;28;20508;-79
2021/12/02 06:31:08;;;;;;;4.50;2.33;;;5.50;1.00;6.70;98721.00;;;;4961232;29;20464;-80
2021/12/02 06:33:36;;;;;;;3.80;1.90;;;5.50;1.00;6.60;98728.00;;;;4955545;29;20926;-80
2021/12/02 06:36:05;;;;;;;3.90;1.80;;;5.50;1.00;6.60;98687.00;;;;4970352;29;20437;-80
2021/12/02 06:38:45;;;;;;;6.03;2.50;;;5.50;1.00;6.70;98751.00;;;;4938998;29;20464;-80
2021/12/02 06:41:13;;;;;;;3.10;2.20;;;5.50;1.00;6.60;98746.00;;;;4961867;28;20463;-81
2021/12/02 06:43:41;;;;;;;5.30;2.47;;;5.50;1.00;6.60;98742.00;;;;4970172;28;20448;-80
2021/12/02 06:46:11;;;;;;;5.23;3.00;;;5.50;1.00;6.60;98730.00;;;;4963380;29;20452;-81
2021/12/02 06:48:39;;;;;;;6.70;3.60;;;5.50;1.00;6.60;98739.00;;;;4960722;28;20440;-82
2021/12/02 06:51:10;;;;;;;5.63;3.20;;;5.50;1.00;6.60;98752.00;;;;4965540;29;20551;-80
2021/12/02 06:53:43;;;;;;;8.43;3.67;;;5.60;1.00;6.50;98720.00;;;;4958664;29;20456;-80
2021/12/02 06:56:12;;;;;;;6.70;3.70;;;5.50;1.00;6.50;98753.00;;;;4961089;28;20936;-80
2021/12/02 06:58:40;;;;;;;6.93;2.90;;;5.50;1.00;6.40;98778.00;;;;4947325;29;20485;-80
2021/12/02 07:01:08;;;;;;;6.40;3.33;;;5.40;1.00;6.30;98711.00;;;;4964178;29;20504;-81
2021/12/02 07:03:39;;;;;;;7.83;3.10;;;5.40;1.00;6.20;98650.00;;;;4963952;28;20468;-81
2021/12/02 07:06:07;;;;;;;5.30;3.13;;;5.30;1.00;6.20;98762.00;;;;4957166;29;20442;-80
2021/12/02 07:08:36;;;;;;;8.80;4.30;;;5.30;1.00;6.20;98762.00;;;;4978889;28;20444;-79
2021/12/02 07:11:06;;;;;;;5.40;2.80;;;5.20;1.00;6.20;98767.00;;;;4957866;29;20448;-79
2021/12/02 07:13:37;;;;;;;7.37;3.10;;;5.20;1.00;6.20;98730.00;;;;4944702;29;20973;-81
2021/12/02 07:16:05;;;;;;;4.43;2.83;;;5.20;1.00;6.10;98755.00;;;;4956918;29;20468;-79
2021/12/02 07:18:37;;;;;;;6.63;2.90;;;5.20;1.00;6.10;98737.00;;;;4943001;28;20839;-80
2021/12/02 07:21:07;;;;;;;3.43;2.30;;;5.20;1.00;6.10;98748.00;;;;4956503;29;20474;-79
2021/12/02 07:23:35;;;;;;;4.83;2.73;;;5.20;1.00;6.10;98765.00;;;;4959297;29;20835;-80
2021/12/02 07:26:04;;;;;;;5.50;3.07;;;5.20;1.00;6.20;98746.00;;;;4962318;29;20464;-79
2021/12/02 07:28:35;;;;;;;4.10;3.00;;;5.20;1.00;6.20;98764.00;;;;4945594;29;20507;-79
2021/12/02 07:31:05;;;;;;;5.30;2.60;;;5.20;1.00;5.90;98729.00;;;;4942003;29;20466;-80
2021/12/02 07:33:38;;;;;;;5.03;2.93;;;5.40;1.00;6.30;98716.00;;;;4954884;28;20457;-79
2021/12/02 07:36:08;;;;;;;5.27;3.13;;;5.30;1.00;6.30;98771.00;;;;4940327;29;20922;-79
2021/12/02 07:38:39;;;;;;;6.63;3.17;;;5.30;1.00;6.20;98786.00;;;;4961698;29;20472;-79
2021/12/02 07:41:07;;;;;;;5.33;3.10;;;5.30;1.00;6.20;98766.00;;;;4959411;28;20579;-80
2021/12/02 07:43:38;;;;;;;7.10;3.30;;;5.30;1.00;6.30;98759.00;;;;4947891;29;20958;-79
2021/12/02 07:46:08;;;;;;;5.17;3.00;;;5.30;1.00;6.30;98774.00;;;;4961559;28;20548;-80
2021/12/02 07:48:37;;;;;;;3.60;2.30;;;5.30;1.00;6.30;98677.00;;;;4957575;28;20477;-79
2021/12/02 07:51:11;;;;;;;4.63;2.70;;;5.40;1.00;6.20;98781.00;;;;4952714;29;20459;-80
2021/12/02 07:53:43;;;;;;;4.87;2.83;;;5.40;1.00;6.30;98806.00;;;;4962242;28;20559;-79
2021/12/02 07:56:14;;;;;;;4.60;2.90;;;5.40;1.00;6.30;98791.00;;;;4957468;29;20455;-79
2021/12/02 07:58:46;;;;;;;3.93;2.70;;;5.40;1.00;6.40;98785.00;;;;4967459;28;21116;-80
2021/12/02 08:01:16;;;;;;;7.00;2.50;;;5.40;1.00;6.40;98799.00;;;;4974277;29;20468;-80
2021/12/02 08:03:47;;;;;;;6.80;2.90;;;5.50;1.00;6.40;98801.00;;;;4974053;28;20483;-81
2021/12/02 08:06:17;;;;;;;5.93;2.93;;;5.50;1.00;6.50;98803.00;;;;4955799;29;20443;-79
2021/12/02 08:08:47;;;;;;;4.33;2.50;;;5.60;1.00;6.20;98809.00;;;;4972666;28;20452;-80
2021/12/02 08:11:15;;;;;;;5.50;2.97;;;5.60;1.00;6.60;98819.00;;;;4976126;28;20479;-80
2021/12/02 08:13:43;;;;;;;5.20;3.23;;;5.60;1.00;6.60;98782.00;;;;4966199;28;20475;-80
2021/12/02 08:16:12;;;;;;;3.20;2.27;;;5.60;1.00;6.60;98841.00;;;;4947202;29;20451;-79
2021/12/02 08:18:40;;;;;;;5.63;2.50;;;5.70;1.00;6.70;98816.00;;;;4963616;28;20479;-80
2021/12/02 08:21:08;;;;;;;7.30;2.80;;;5.70;1.00;6.70;98833.00;;;;4965270;28;20946;-79
2021/12/02 08:23:39;;;;;;;3.90;2.60;;;5.70;1.00;6.70;98823.00;;;;4966108;28;20551;-79
2021/12/02 08:26:07;;;;;;;3.40;2.33;;;5.80;1.00;6.80;98825.00;;;;4964748;29;20532;-79
2021/12/02 08:28:36;;;;;;;5.10;2.60;;;5.80;1.00;6.70;98810.00;;;;4958272;28;20500;-79
2021/12/02 08:31:04;;;;;;;3.30;2.47;;;5.80;1.00;6.70;98808.00;;;;4966162;29;20444;-79
2021/12/02 08:33:32;;;;;;;6.47;2.43;;;5.80;1.00;6.70;98826.00;;;;4964836;29;20452;-80
2021/12/02 08:36:01;;;;;;;4.10;2.90;;;5.80;1.00;6.80;98817.00;;;;4944713;29;20472;-79
2021/12/02 08:38:33;;;;;;;4.33;2.30;;;5.80;1.00;6.90;98843.00;;;;4966278;29;20432;-80
2021/12/02 08:41:04;;;;;;;3.50;2.90;;;5.80;1.00;7.00;98771.00;;;;4962950;29;20459;-80
2021/12/02 08:43:32;;;;;;;3.80;2.70;;;5.80;1.00;7.00;98844.00;;;;4962888;29;20436;-80
2021/12/02 08:46:01;;;;;;;4.10;2.90;;;5.90;1.00;7.10;98856.00;;;;4961467;29;20509;-80
2021/12/02 08:48:30;;;;;;;3.20;2.50;;;6.00;1.00;7.10;98858.00;;;;4955994;29;20461;-80
2021/12/02 08:50:58;;;;;;;5.10;3.00;;;6.20;1.00;7.20;98840.00;;;;4958431;28;20480;-80
2021/12/02 08:53:27;;;;;;;6.23;2.83;;;6.10;1.00;7.30;98845.00;;;;4961118;28;20467;-80
2021/12/02 08:55:55;;;;;;;3.70;2.40;;;6.20;1.00;7.20;98843.00;;;;4961542;29;20520;-80
2021/12/02 08:58:25;;;;;;;3.30;2.50;;;6.20;1.00;7.30;98852.00;;;;4965019;29;20838;-79
2021/12/02 09:00:53;;;;;;;3.70;2.50;;;6.30;1.00;7.30;98815.00;;;;4959387;29;20472;-80
2021/12/02 09:03:22;;;;;;;7.23;3.43;;;6.30;1.00;7.40;98832.00;;;;4961876;28;20465;-79
2021/12/02 09:05:51;;;;;;;4.70;2.90;;;6.30;1.00;7.50;98856.00;;;;4955875;29;20504;-78
2021/12/02 09:08:23;;;;;;;5.77;3.30;;;6.30;1.00;7.60;98823.00;;;;4944847;29;20467;-81
2021/12/02 09:10:52;;;;;;;7.83;2.83;;;6.40;1.00;7.70;98752.00;;;;4955276;28;20459;-80
2021/12/02 09:13:22;;;;;;;4.27;2.90;;;6.50;1.00;7.60;98848.00;;;;4965302;29;20547;-80
2021/12/02 09:15:53;;;;;;;4.23;2.77;;;6.50;1.00;7.80;98767.00;;;;4962377;29;20511;-80
2021/12/02 09:18:22;;;;;;;3.93;2.40;;;6.60;1.00;7.80;98825.00;;;;4962902;29;20461;-81
2021/12/02 09:20:52;;;;;;;3.50;2.50;;;6.60;1.00;7.90;98858.00;;;;4954884;28;20517;-80
2021/12/02 09:23:20;;;;;;;2.70;2.13;;;6.70;1.00;7.80;98861.00;;;;4953531;29;20531;-80
2021/12/02 09:25:49;;;;;;;2.90;1.70;;;6.70;1.00;7.90;98861.00;;;;4966453;29;20449;-79
2021/12/02 09:28:18;;;;;;;2.97;2.10;;;6.70;1.00;7.90;98860.00;;;;4968967;28;20464;-80
2021/12/02 09:30:47;;;;;;;4.37;2.70;;;6.80;1.00;7.90;98866.00;;;;4947492;29;20469;-80
2021/12/02 09:33:19;;;;;;;4.63;2.57;;;6.80;1.00;8.10;98840.00;;;;4965034;28;20580;-81
2021/12/02 09:35:47;;;;;;;2.83;2.40;;;6.90;1.00;8.10;98871.00;;;;4949245;29;20471;-80
2021/12/02 09:38:16;;;;;;;6.20;3.30;;;6.90;1.00;8.20;98867.00;;;;4959448;28;20494;-82
2021/12/02 09:40:46;;;;;;;5.70;2.87;;;6.90;1.00;8.10;98895.00;;;;4954800;28;20904;-81
2021/12/02 09:43:15;;;;;;;4.37;2.70;;;6.90;1.00;8.00;98860.00;;;;4968912;28;20484;-80
2021/12/02 09:45:45;;;;;;;3.40;2.43;;;6.90;1.00;8.10;98857.00;;;;4969165;28;20459;-82
2021/12/02 09:48:13;;;;;;;6.50;3.30;;;7.00;1.00;8.10;98874.00;;;;4957459;29;20448;-81
2021/12/02 09:50:53;;;;;;;5.67;3.17;;;6.90;1.00;8.10;98886.00;;;;4953767;29;20520;-80
2021/12/02 09:53:24;;;;;;;3.60;2.87;;;6.90;1.00;8.20;98904.00;;;;4973225;29;20554;-78
2021/12/02 09:56:02;;;;;;;4.40;2.70;;;6.80;1.00;8.10;98898.00;;;;4967905;29;20455;-81
2021/12/02 09:58:31;;;;;;;3.93;3.20;;;6.80;1.00;7.90;98915.00;;;;4977237;28;20440;-82
2021/12/02 10:01:06;;;;;;;4.40;2.67;;;6.70;1.00;7.80;98902.00;;;;4964282;28;20432;-82
2021/12/02 10:03:38;;;;;;;4.73;2.67;;;6.60;1.00;7.60;98876.00;;;;4968721;28;20472;-80
2021/12/02 10:06:14;;;;;;;4.70;3.27;;;6.50;1.00;7.50;98903.00;;;;4961665;29;20452;-80
2021/12/02 10:08:52;;;;;;;4.20;2.90;;;6.40;1.00;7.50;98903.00;;;;4961187;28;20543;-79
2021/12/02 10:11:46;;;;;;;6.27;2.73;;;6.30;1.00;7.20;98887.00;;;;4945023;29;20464;-80
2021/12/02 10:14:21;;;;;;;6.20;3.40;;;6.20;1.00;7.30;98915.00;;;;4959216;28;20488;-80
2021/12/02 10:16:53;;;;;;;4.60;2.73;;;6.20;1.00;7.20;98903.00;;;;4968368;29;20467;-81
2021/12/02 10:19:23;;;;;;;4.60;3.03;;;6.20;1.00;7.20;98854.00;;;;4975156;28;20555;-82
2021/12/02 10:21:56;;;;;;;6.37;3.57;;;6.20;1.00;7.20;98889.00;;;;4951750;29;20968;-80
2021/12/02 10:24:28;;;;;;;3.47;2.90;;;6.10;1.00;7.20;98889.00;;;;4968144;29;20460;-79
2021/12/02 10:26:59;;;;;;;8.63;3.30;;;6.10;1.00;7.10;98850.00;;;;4969321;29;20496;-80
2021/12/02 10:29:47;;;;;;;3.47;2.53;;;6.00;1.00;7.00;98891.00;;;;4959076;29;20476;-81
2021/12/02 10:32:21;;;;;;;5.40;2.80;;;6.00;1.00;7.00;98897.00;;;;4943384;29;20962;-80
2021/12/02 10:34:53;;;;;;;3.80;2.50;;;5.90;1.00;6.90;98890.00;;;;4961198;29;20581;-80
2021/12/02 10:37:28;;;;;;;6.50;2.67;;;5.90;1.00;6.90;98871.00;;;;4963244;29;20459;-80
2021/12/02 10:40:00;;;;;;;4.83;2.50;;;5.90;1.00;6.90;98880.00;;;;4939649;29;20468;-81
2021/12/02 10:42:31;;;;;;;5.20;2.50;;;5.90;1.00;6.90;98886.00;;;;4957790;29;20519;-81
2021/12/02 10:45:02;;;;;;;3.10;1.90;;;5.90;1.00;7.10;98876.00;;;;4943781;29;20483;-80
2021/12/02 10:47:32;;;;;;;5.10;2.40;;;6.00;1.00;7.30;98898.00;;;;4944048;29;20559;-81
2021/12/02 10:50:07;;;;;;;6.77;3.10;;;6.20;1.00;7.60;98890.00;;;;4941606;29;20487;-82
2021/12/02 10:52:37;;;;;;;3.77;3.13;;;6.50;1.00;8.20;98888.00;;;;4957500;28;20531;-80
2021/12/02 10:55:10;;;;;;;4.67;2.63;;;7.00;1.00;8.70;98915.00;;;;4972945;28;20460;-80
2021/12/02 10:57:45;;;;;;;4.83;3.10;;;7.30;1.00;8.80;98891.00;;;;4965103;29;20544;-79
2021/12/02 11:00:18;;;;;;;3.97;2.63;;;7.40;1.00;8.70;98909.00;;;;4965632;28;20503;-79
2021/12/02 11:02:50;;;;;;;5.67;3.10;;;7.60;1.00;8.60;98891.00;;;;4966292;29;20495;-80
2021/12/02 11:05:23;;;;;;;3.47;2.03;;;7.50;1.00;8.50;98899.00;;;;4960944;28;21029;-79
2021/12/02 11:07:59;;;;;;;4.40;2.30;;;7.40;1.00;8.40;98861.00;;;;4956160;29;20521;-81
2021/12/02 11:10:33;;;;;;;2.73;2.53;;;7.50;1.00;8.30;98887.00;;;;4946729;29;20807;-80
2021/12/02 11:13:02;;;;;;;2.70;2.17;;;7.50;1.00;8.50;98895.00;;;;4962923;29;20463;-79
2021/12/02 11:15:31;;;;;;;4.60;2.70;;;7.50;1.00;8.40;98895.00;;;;4942222;29;20453;-79
2021/12/02 11:18:03;;;;;;;3.27;2.63;;;7.40;1.00;8.30;98864.00;;;;4963601;29;20456;-80
2021/12/02 11:20:35;;;;;;;3.57;2.70;;;7.30;1.00;8.30;98895.00;;;;4959378;29;20567;-80
2021/12/02 11:23:08;;;;;;;3.90;2.93;;;7.10;1.00;8.20;98863.00;;;;4961766;28;20473;-79
2021/12/02 11:25:40;;;;;;;2.97;2.53;;;7.00;1.00;8.20;98898.00;;;;4964237;28;20436;-79
2021/12/02 11:28:10;;;;;;;4.97;2.97;;;6.90;1.00;8.20;98867.00;;;;4961865;29;20433;-80
2021/12/02 11:30:39;;;;;;;3.70;2.13;;;6.80;1.00;8.20;98905.00;;;;4958099;28;20560;-79
2021/12/02 11:33:32;;;;;;;4.77;2.43;;;6.90;1.00;8.40;98896.00;;;;4952354;28;20452;-79
2021/12/02 11:36:01;;;;;;;3.47;2.40;;;7.10;1.00;8.60;98905.00;;;;4965131;28;20475;-80